createdAt,value
2023-04-22T00:00:04.422Z,21.56
2023-04-22T00:02:32.516Z,21.54
2023-04-22T00:04:59.431Z,21.55
2023-04-22T00:07:26.282Z,21.55
2023-04-22T00:09:52.878Z,21.51
2023-04-22T00:12:19.506Z,21.55
2023-04-22T00:14:46.002Z,21.54
2023-04-22T00:17:12.639Z,21.47
2023-04-22T00:19:39.462Z,21.46
2023-04-22T00:22:06.192Z,21.53
2023-04-22T00:24:32.871Z,21.51
2023-04-22T00:26:59.792Z,21.51
2023-04-22T00:29:26.413Z,21.50
2023-04-22T00:31:53.076Z,21.49
2023-04-22T00:34:19.729Z,21.49
2023-04-22T00:36:46.550Z,21.48
2023-04-22T00:39:14.007Z,21.48
2023-04-22T00:41:40.624Z,21.45
2023-04-22T00:44:11.101Z,21.45
2023-04-22T00:46:39.606Z,21.44
2023-04-22T00:49:07.798Z,21.43
2023-04-22T00:51:34.909Z,21.44
2023-04-22T00:54:02.063Z,21.43
2023-04-22T00:56:31.656Z,21.42
2023-04-22T00:58:58.965Z,21.43
2023-04-22T01:01:26.646Z,21.44
2023-04-22T01:03:53.955Z,21.44
2023-04-22T01:06:22.110Z,21.45
2023-04-22T01:08:48.973Z,21.37
2023-04-22T01:11:16.172Z,21.45
2023-04-22T01:13:42.711Z,21.23
2023-04-22T01:16:10.220Z,21.45
2023-04-22T01:18:37.116Z,21.44
2023-04-22T01:21:03.876Z,21.43
2023-04-22T01:23:30.760Z,21.43
2023-04-22T01:25:57.510Z,21.43
2023-04-22T01:28:24.539Z,21.43
2023-04-22T01:30:52.403Z,21.41
2023-04-22T01:33:19.274Z,21.38
2023-04-22T01:35:46.185Z,21.40
2023-04-22T01:38:13.392Z,21.40
2023-04-22T01:40:40.977Z,21.39
2023-04-22T01:43:07.890Z,21.39
2023-04-22T01:45:37.584Z,21.39
2023-04-22T01:48:04.946Z,21.37
2023-04-22T01:50:31.555Z,21.38
2023-04-22T01:52:58.877Z,21.37
2023-04-22T01:55:25.674Z,21.30
2023-04-22T01:57:52.445Z,21.35
2023-04-22T02:00:19.442Z,21.31
2023-04-22T02:02:47.925Z,21.34
2023-04-22T02:05:14.843Z,21.35
2023-04-22T02:07:41.722Z,21.06
2023-04-22T02:10:09.688Z,21.33
2023-04-22T02:12:36.213Z,21.30
2023-04-22T02:15:02.937Z,21.32
2023-04-22T02:17:30.109Z,21.31
2023-04-22T02:19:56.892Z,21.30
2023-04-22T02:22:24.034Z,21.30
2023-04-22T02:24:51.133Z,21.29
2023-04-22T02:27:17.633Z,21.28
2023-04-22T02:29:45.963Z,21.28
2023-04-22T02:32:12.956Z,21.27
2023-04-22T02:34:39.587Z,21.25
2023-04-22T02:37:06.345Z,21.27
2023-04-22T02:39:33.489Z,21.26
2023-04-22T02:42:01.349Z,21.22
2023-04-22T02:44:28.305Z,21.24
2023-04-22T02:46:54.967Z,21.22
2023-04-22T02:49:21.708Z,21.22
2023-04-22T02:51:48.462Z,21.22
2023-04-22T02:54:15.479Z,21.22
2023-04-22T02:56:41.976Z,21.21
2023-04-22T02:59:08.713Z,21.21
2023-04-22T03:01:35.433Z,21.20
2023-04-22T03:04:04.420Z,21.21
2023-04-22T03:06:31.087Z,21.19
2023-04-22T03:08:58.260Z,21.20
2023-04-22T03:11:25.627Z,21.19
2023-04-22T03:13:52.427Z,21.17
2023-04-22T03:16:19.335Z,21.10
2023-04-22T03:18:46.446Z,21.16
2023-04-22T03:21:13.044Z,21.13
2023-04-22T03:23:40.924Z,21.09
2023-04-22T03:26:07.717Z,21.14
2023-04-22T03:28:34.401Z,21.11
2023-04-22T03:31:01.756Z,21.12
2023-04-22T03:33:29.530Z,21.13
2023-04-22T03:36:02.756Z,21.11
2023-04-22T03:38:29.432Z,21.02
2023-04-22T03:40:55.915Z,21.11
2023-04-22T03:43:37.078Z,21.11
2023-04-22T03:46:08.075Z,21.10
2023-04-22T03:48:38.167Z,21.09
2023-04-22T03:51:10.202Z,21.04
2023-04-22T03:53:38.534Z,21.09
2023-04-22T03:56:06.743Z,21.09
2023-04-22T03:58:37.252Z,21.09
2023-04-22T04:01:07.866Z,21.10
2023-04-22T04:03:34.869Z,21.11
2023-04-22T04:06:02.330Z,21.11
2023-04-22T04:08:29.055Z,21.09
2023-04-22T04:10:55.970Z,21.09
2023-04-22T04:13:24.074Z,21.06
2023-04-22T04:16:08.192Z,21.10
2023-04-22T04:18:38.704Z,21.09
2023-04-22T04:21:05.633Z,21.10
2023-04-22T04:23:36.015Z,21.10
2023-04-22T04:26:05.447Z,21.05
2023-04-22T04:28:35.127Z,21.12
2023-04-22T04:31:05.315Z,21.03
2023-04-22T04:33:32.622Z,21.03
2023-04-22T04:35:59.788Z,21.14
2023-04-22T04:38:30.799Z,21.16
2023-04-22T04:40:58.597Z,21.13
2023-04-22T04:43:27.044Z,21.15
2023-04-22T04:46:02.038Z,21.16
2023-04-22T04:48:35.956Z,21.17
2023-04-22T04:51:07.928Z,21.07
2023-04-22T04:53:40.563Z,21.04
2023-04-22T04:56:07.230Z,21.15
2023-04-22T04:58:35.102Z,21.15
2023-04-22T05:01:24.025Z,21.15
2023-04-22T05:03:51.886Z,21.15
2023-04-22T05:06:20.100Z,21.16
2023-04-22T05:08:51.457Z,21.13
2023-04-22T05:11:19.133Z,21.16
2023-04-22T05:13:48.529Z,21.15
2023-04-22T05:16:22.245Z,21.11
2023-04-22T05:18:48.890Z,21.17
2023-04-22T05:21:16.795Z,21.19
2023-04-22T05:23:45.475Z,21.19
2023-04-22T05:26:12.894Z,21.20
2023-04-22T05:28:41.923Z,21.19
2023-04-22T05:31:08.722Z,21.17
2023-04-22T05:33:36.711Z,21.16
2023-04-22T05:36:03.399Z,21.17
2023-04-22T05:38:30.374Z,21.01
2023-04-22T05:40:56.922Z,21.21
2023-04-22T05:43:24.829Z,21.02
2023-04-22T05:45:58.223Z,21.23
2023-04-22T05:48:24.957Z,21.22
2023-04-22T05:50:57.904Z,21.13
2023-04-22T05:53:27.538Z,21.25
2023-04-22T05:55:55.651Z,21.26
2023-04-22T05:58:23.781Z,21.27
2023-04-22T06:00:53.600Z,21.25
2023-04-22T06:03:39.086Z,21.23
2023-04-22T06:06:06.655Z,21.28
2023-04-22T06:08:33.302Z,21.18
2023-04-22T06:11:00.207Z,21.30
2023-04-22T06:13:30.484Z,21.27
2023-04-22T06:15:57.191Z,21.06
2023-04-22T06:18:23.887Z,21.30
2023-04-22T06:20:51.952Z,21.33
2023-04-22T06:23:18.485Z,21.35
2023-04-22T06:25:47.038Z,21.36
2023-04-22T06:28:14.338Z,21.27
2023-04-22T06:30:41.134Z,21.38
2023-04-22T06:33:08.166Z,21.28
2023-04-22T06:35:35.353Z,21.37
2023-04-22T06:38:01.908Z,21.38
2023-04-22T06:40:36.783Z,21.43
2023-04-22T06:43:13.661Z,21.41
2023-04-22T06:46:10.568Z,21.31
2023-04-22T06:48:55.869Z,21.45
2023-04-22T06:51:41.058Z,21.38
2023-04-22T06:54:08.221Z,21.46
2023-04-22T06:56:36.012Z,21.43
2023-04-22T06:59:02.671Z,21.38
2023-04-22T07:01:30.258Z,21.43
2023-04-22T07:03:57.436Z,21.50
2023-04-22T07:06:24.607Z,21.51
2023-04-22T07:08:51.600Z,21.52
2023-04-22T07:11:18.128Z,21.54
2023-04-22T07:14:01.708Z,21.43
2023-04-22T07:16:28.681Z,21.53
2023-04-22T07:18:55.481Z,21.50
2023-04-22T07:21:23.665Z,21.46
2023-04-22T07:23:50.473Z,21.38
2023-04-22T07:26:17.059Z,21.37
2023-04-22T07:28:43.636Z,21.45
2023-04-22T07:31:10.394Z,21.44
2023-04-22T07:33:36.881Z,21.42
2023-04-22T07:36:03.777Z,21.38
2023-04-22T07:38:30.412Z,21.36
2023-04-22T07:40:57.679Z,21.32
2023-04-22T07:43:24.215Z,21.27
2023-04-22T07:45:51.241Z,21.26
2023-04-22T07:48:18.230Z,21.26
2023-04-22T07:50:45.008Z,21.27
2023-04-22T07:53:11.545Z,21.27
2023-04-22T07:55:38.131Z,21.31
2023-04-22T07:58:06.598Z,21.34
2023-04-22T08:00:34.846Z,21.36
2023-04-22T08:03:02.636Z,21.28
2023-04-22T08:05:29.337Z,21.23
2023-04-22T08:07:55.861Z,21.18
2023-04-22T08:10:22.548Z,21.30
2023-04-22T08:12:49.207Z,21.17
2023-04-22T08:15:15.745Z,21.18
2023-04-22T08:17:42.400Z,21.27
2023-04-22T08:20:09.781Z,21.24
2023-04-22T08:22:36.642Z,21.20
2023-04-22T08:25:03.313Z,21.23
2023-04-22T08:27:30.826Z,21.24
2023-04-22T08:29:57.401Z,21.23
2023-04-22T08:32:26.297Z,21.23
2023-04-22T08:34:54.238Z,21.26
2023-04-22T08:37:25.561Z,21.20
2023-04-22T08:39:52.194Z,21.25
2023-04-22T08:42:19.948Z,21.26
2023-04-22T08:44:46.911Z,21.27
2023-04-22T08:47:15.322Z,21.30
2023-04-22T08:49:43.750Z,21.22
2023-04-22T08:52:12.789Z,21.26
2023-04-22T08:54:39.390Z,21.25
2023-04-22T08:57:07.381Z,21.31
2023-04-22T08:59:35.413Z,21.32
2023-04-22T09:02:05.691Z,21.22
2023-04-22T09:04:32.915Z,21.33
2023-04-22T09:07:01.598Z,21.39
2023-04-22T09:09:30.742Z,21.39
2023-04-22T09:11:57.954Z,21.40
2023-04-22T09:14:25.552Z,21.40
2023-04-22T09:16:52.192Z,21.36
2023-04-22T09:19:25.649Z,21.36
2023-04-22T09:21:54.279Z,21.23
2023-04-22T09:24:21.638Z,21.30
2023-04-22T09:26:49.047Z,21.30
2023-04-22T09:29:16.471Z,21.31
2023-04-22T09:31:47.803Z,21.31
2023-04-22T09:34:17.414Z,21.28
2023-04-22T09:36:46.599Z,21.39
2023-04-22T09:39:13.273Z,21.30
2023-04-22T09:41:41.066Z,21.42
2023-04-22T09:44:15.878Z,21.43
2023-04-22T09:46:44.031Z,21.43
2023-04-22T09:49:10.835Z,21.48
2023-04-22T09:51:41.082Z,21.50
2023-04-22T09:54:10.289Z,21.54
2023-04-22T09:56:48.787Z,21.51
2023-04-22T09:59:21.166Z,21.56
2023-04-22T10:01:48.489Z,21.46
2023-04-22T10:04:16.050Z,21.51
2023-04-22T10:06:43.243Z,21.46
2023-04-22T10:09:09.986Z,21.54
2023-04-22T10:11:37.544Z,21.44
2023-04-22T10:14:05.423Z,21.53
2023-04-22T10:16:34.838Z,21.55
2023-04-22T10:19:04.665Z,21.51
2023-04-22T10:21:32.411Z,21.55
2023-04-22T10:24:00.765Z,21.58
2023-04-22T10:26:56.249Z,21.62
2023-04-22T10:29:25.335Z,21.63
2023-04-22T10:32:07.944Z,21.66
2023-04-22T10:34:38.862Z,21.67
2023-04-22T10:37:08.335Z,21.70
2023-04-22T10:39:35.295Z,21.63
2023-04-22T10:42:07.508Z,21.70
2023-04-22T10:44:53.684Z,21.69
2023-04-22T10:47:27.190Z,21.67
2023-04-22T10:50:24.139Z,21.66
2023-04-22T10:52:55.423Z,21.62
2023-04-22T10:55:23.717Z,21.54
2023-04-22T10:57:51.901Z,21.59
2023-04-22T11:00:24.493Z,21.55
2023-04-22T11:03:16.406Z,21.54
2023-04-22T11:05:44.111Z,21.44
2023-04-22T11:08:21.561Z,21.53
2023-04-22T11:10:50.395Z,21.49
2023-04-22T11:13:19.408Z,21.60
2023-04-22T11:15:48.865Z,21.54
2023-04-22T11:18:19.837Z,21.56
2023-04-22T11:20:49.162Z,21.54
2023-04-22T11:23:27.968Z,21.52
2023-04-22T11:25:59.560Z,21.44
2023-04-22T11:28:26.848Z,21.53
2023-04-22T11:31:01.069Z,21.56
2023-04-22T11:33:27.737Z,21.59
2023-04-22T11:35:55.364Z,21.54
2023-04-22T11:38:21.960Z,21.59
2023-04-22T11:40:48.998Z,21.67
2023-04-22T11:43:16.188Z,21.66
2023-04-22T11:45:42.879Z,21.61
2023-04-22T11:48:11.434Z,21.73
2023-04-22T11:50:40.644Z,21.70
2023-04-22T11:53:18.991Z,21.68
2023-04-22T11:55:47.883Z,21.61
2023-04-22T11:58:16.138Z,21.65
2023-04-22T12:00:51.289Z,21.67
2023-04-22T12:03:26.254Z,21.64
2023-04-22T12:06:01.083Z,21.66
2023-04-22T12:08:36.758Z,21.65
2023-04-22T12:11:06.182Z,21.56
2023-04-22T12:13:33.160Z,21.67
2023-04-22T12:16:04.669Z,21.56
2023-04-22T12:18:32.790Z,21.55
2023-04-22T12:21:12.688Z,21.65
2023-04-22T12:23:43.479Z,21.64
2023-04-22T12:26:10.665Z,21.65
2023-04-22T12:28:38.895Z,21.66
2023-04-22T12:31:07.580Z,21.67
2023-04-22T12:33:34.806Z,21.68
2023-04-22T12:36:01.589Z,21.48
2023-04-22T12:38:28.621Z,21.61
2023-04-22T12:40:55.480Z,21.56
2023-04-22T12:43:22.168Z,21.45
2023-04-22T12:45:48.926Z,21.72
2023-04-22T12:48:16.146Z,21.55
2023-04-22T12:50:42.892Z,21.68
2023-04-22T12:53:09.881Z,21.73
2023-04-22T12:55:36.867Z,21.66
2023-04-22T12:58:04.312Z,21.67
2023-04-22T13:00:31.111Z,21.69
2023-04-22T13:02:57.948Z,21.67
2023-04-22T13:05:25.395Z,21.67
2023-04-22T13:08:05.830Z,21.67
2023-04-22T13:10:34.179Z,21.66
2023-04-22T13:13:16.978Z,21.61
2023-04-22T13:15:45.384Z,21.63
2023-04-22T13:18:12.325Z,21.68
2023-04-22T13:20:39.815Z,21.59
2023-04-22T13:23:06.651Z,21.62
2023-04-22T13:25:33.353Z,21.54
2023-04-22T13:28:03.087Z,21.66
2023-04-22T13:30:29.821Z,21.65
2023-04-22T13:32:56.478Z,21.63
2023-04-22T13:35:23.516Z,21.69
2023-04-22T13:37:50.088Z,21.68
2023-04-22T13:40:16.737Z,21.69
2023-04-22T13:42:46.681Z,21.67
2023-04-22T13:45:13.348Z,21.65
2023-04-22T13:47:42.851Z,21.69
2023-04-22T13:50:09.996Z,21.70
2023-04-22T13:52:36.898Z,21.50
2023-04-22T13:55:04.053Z,21.71
2023-04-22T13:57:30.581Z,21.64
2023-04-22T13:59:57.174Z,21.67
2023-04-22T14:02:24.317Z,21.64
2023-04-22T14:04:51.114Z,21.65
2023-04-22T14:07:17.699Z,21.65
2023-04-22T14:09:44.428Z,21.49
2023-04-22T14:12:11.652Z,21.70
2023-04-22T14:14:38.345Z,21.66
2023-04-22T14:17:08.326Z,21.65
2023-04-22T14:19:37.346Z,21.76
2023-04-22T14:22:04.029Z,21.67
2023-04-22T14:24:30.966Z,21.77
2023-04-22T14:26:59.858Z,21.75
2023-04-22T14:31:43.744Z,21.76
2023-04-22T14:34:10.697Z,21.69
2023-04-22T14:38:50.591Z,21.74
2023-04-22T14:41:17.291Z,21.79
2023-04-22T14:43:43.828Z,21.80
2023-04-22T14:46:10.572Z,21.59
2023-04-22T14:48:39.219Z,21.76
2023-04-22T14:51:05.976Z,21.79
2023-04-22T14:53:35.679Z,21.82
2023-04-22T14:56:02.264Z,21.82
2023-04-22T14:58:31.616Z,21.80
2023-04-22T15:00:59.794Z,21.72
2023-04-22T15:03:26.737Z,21.70
2023-04-22T15:05:54.853Z,21.68
2023-04-22T15:08:21.673Z,21.68
2023-04-22T15:10:48.336Z,21.68
2023-04-22T15:13:14.935Z,21.70
2023-04-22T15:15:41.640Z,21.78
2023-04-22T15:18:08.900Z,21.69
2023-04-22T15:20:35.887Z,21.81
2023-04-22T15:23:02.888Z,21.83
2023-04-22T15:25:29.533Z,21.78
2023-04-22T15:27:56.891Z,21.86
2023-04-22T15:30:24.442Z,21.84
2023-04-22T15:32:51.033Z,21.55
2023-04-22T15:35:17.886Z,21.70
2023-04-22T15:37:45.739Z,21.80
2023-04-22T15:40:12.620Z,21.76
2023-04-22T15:42:39.189Z,21.71
2023-04-22T15:45:06.596Z,21.73
2023-04-22T15:47:33.759Z,21.83
2023-04-22T15:50:06.654Z,21.55
2023-04-22T15:52:35.906Z,21.76
2023-04-22T15:55:02.575Z,21.78
2023-04-22T15:57:34.136Z,21.87
2023-04-22T16:00:12.936Z,21.88
2023-04-22T16:02:43.788Z,21.88
2023-04-22T16:05:12.203Z,21.83
2023-04-22T16:07:38.924Z,21.88
2023-04-22T16:10:09.344Z,21.72
2023-04-22T16:12:36.200Z,21.86
2023-04-22T16:15:02.824Z,21.84
2023-04-22T16:17:29.977Z,21.82
2023-04-22T16:19:56.602Z,21.76
2023-04-22T16:22:24.046Z,21.71
2023-04-22T16:24:51.246Z,21.81
2023-04-22T16:27:19.117Z,21.76
2023-04-22T16:29:45.964Z,21.81
2023-04-22T16:32:12.716Z,21.76
2023-04-22T16:34:39.324Z,21.72
2023-04-22T16:37:06.474Z,21.79
2023-04-22T16:39:33.404Z,21.70
2023-04-22T16:42:02.294Z,21.69
2023-04-22T16:44:29.053Z,21.80
2023-04-22T16:46:55.903Z,21.80
2023-04-22T16:49:22.454Z,21.81
2023-04-22T16:51:49.308Z,21.82
2023-04-22T16:54:15.954Z,21.70
2023-04-22T16:56:42.564Z,21.80
2023-04-22T16:59:09.076Z,21.76
2023-04-22T17:01:36.190Z,21.85
2023-04-22T17:04:03.108Z,21.86
2023-04-22T17:06:29.815Z,21.89
2023-04-22T17:08:56.420Z,21.91
2023-04-22T17:11:23.966Z,21.89
2023-04-22T17:13:51.443Z,21.93
2023-04-22T17:16:18.640Z,21.94
2023-04-22T17:18:46.912Z,21.91
2023-04-22T17:21:14.063Z,21.87
2023-04-22T17:23:40.699Z,21.79
2023-04-22T17:26:07.282Z,21.76
2023-04-22T17:28:34.098Z,21.72
2023-04-22T17:31:00.894Z,21.66
2023-04-22T17:33:27.537Z,21.60
2023-04-22T17:35:54.132Z,21.54
2023-04-22T17:38:20.818Z,21.47
2023-04-22T17:40:47.986Z,21.43
2023-04-22T17:43:17.362Z,21.39
2023-04-22T17:45:44.184Z,21.38
2023-04-22T17:48:12.122Z,21.37
2023-04-22T17:50:38.883Z,21.35
2023-04-22T17:53:05.987Z,21.34
2023-04-22T17:55:35.213Z,21.33
2023-04-22T17:58:03.177Z,21.32
2023-04-22T18:00:30.986Z,21.26
2023-04-22T18:02:57.933Z,21.23
2023-04-22T18:05:25.218Z,21.05
2023-04-22T18:07:52.534Z,21.12
2023-04-22T18:10:19.545Z,20.85
2023-04-22T18:12:46.114Z,21.12
2023-04-22T18:15:12.773Z,21.17
2023-04-22T18:17:39.505Z,21.21
2023-04-22T18:20:17.220Z,21.21
2023-04-22T18:22:47.143Z,21.30
2023-04-22T18:25:15.798Z,21.35
2023-04-22T18:30:10.916Z,21.37
2023-04-22T18:32:37.817Z,21.47
2023-04-22T18:35:05.194Z,21.50
2023-04-22T18:37:34.361Z,21.52
2023-04-22T18:40:01.187Z,21.55
2023-04-22T18:42:28.058Z,21.56
2023-04-22T18:44:54.635Z,21.57
2023-04-22T18:47:21.401Z,21.54
2023-04-22T18:49:48.209Z,21.59
2023-04-22T18:52:17.962Z,21.54
2023-04-22T18:54:44.711Z,21.61
2023-04-22T18:57:11.354Z,21.55
2023-04-22T18:59:38.535Z,21.53
2023-04-22T19:02:05.697Z,21.61
2023-04-22T19:04:32.403Z,21.62
2023-04-22T19:06:59.239Z,21.52
2023-04-22T19:09:26.011Z,21.62
2023-04-22T19:11:52.944Z,21.62
2023-04-22T19:14:19.914Z,21.62
2023-04-22T19:16:46.535Z,21.62
2023-04-22T19:19:13.233Z,21.61
2023-04-22T19:21:40.030Z,21.61
2023-04-22T19:24:08.296Z,21.62
2023-04-22T19:26:37.698Z,21.62
2023-04-22T19:29:04.278Z,21.58
2023-04-22T19:31:31.085Z,21.55
2023-04-22T19:33:58.045Z,21.62
2023-04-22T19:36:24.712Z,21.62
2023-04-22T19:38:51.367Z,21.60
2023-04-22T19:41:17.931Z,21.62
2023-04-22T19:43:45.210Z,21.61
2023-04-22T19:46:12.545Z,21.61
2023-04-22T19:48:39.433Z,21.64
2023-04-22T19:51:06.739Z,21.65
2023-04-22T19:53:35.095Z,21.65
2023-04-22T19:56:02.446Z,21.64
2023-04-22T19:58:29.348Z,21.51
2023-04-22T20:00:56.094Z,21.66
2023-04-22T20:03:23.455Z,21.64
2023-04-22T20:05:50.422Z,21.67
2023-04-22T20:10:36.462Z,21.68
2023-04-22T20:13:04.643Z,21.67
2023-04-22T20:15:31.399Z,21.70
2023-04-22T20:17:58.224Z,21.68
2023-04-22T20:20:25.119Z,21.59
2023-04-22T20:22:53.611Z,21.60
2023-04-22T20:25:21.022Z,21.69
2023-04-22T20:27:48.585Z,21.70
2023-04-22T20:30:18.911Z,21.67
2023-04-22T20:32:45.720Z,21.69
2023-04-22T20:35:14.846Z,21.71
2023-04-22T20:37:41.854Z,21.72
2023-04-22T20:40:08.907Z,21.73
2023-04-22T20:42:36.929Z,21.68
2023-04-22T20:45:15.949Z,21.74
2023-04-22T20:47:43.203Z,21.68
2023-04-22T20:50:10.482Z,21.72
2023-04-22T20:52:37.155Z,21.73
2023-04-22T20:55:06.496Z,21.66
2023-04-22T20:57:33.286Z,21.67
2023-04-22T20:59:59.833Z,21.77
2023-04-22T21:02:26.948Z,21.73
2023-04-22T21:04:56.205Z,21.74
2023-04-22T21:07:24.453Z,21.78
2023-04-22T21:09:51.196Z,21.71
2023-04-22T21:12:19.300Z,21.75
2023-04-22T21:14:46.452Z,21.75
2023-04-22T21:17:19.829Z,21.75
2023-04-22T21:19:48.624Z,21.75
2023-04-22T21:22:19.252Z,21.75
2023-04-22T21:24:48.331Z,21.76
2023-04-22T21:27:18.694Z,21.76
2023-04-22T21:29:46.720Z,21.76
2023-04-22T21:32:13.389Z,21.78
2023-04-22T21:34:40.461Z,21.78
2023-04-22T21:37:08.153Z,21.59
2023-04-22T21:39:35.360Z,21.71
2023-04-22T21:42:07.950Z,21.76
2023-04-22T21:44:37.338Z,21.80
2023-04-22T21:47:04.793Z,21.80
2023-04-22T21:49:31.758Z,21.81
2023-04-22T21:51:59.055Z,21.81
2023-04-22T21:54:25.840Z,21.79
2023-04-22T21:56:52.429Z,21.76
2023-04-22T21:59:19.257Z,21.72
2023-04-22T22:01:46.942Z,21.78
2023-04-22T22:04:16.213Z,21.79
2023-04-22T22:06:44.108Z,21.76
2023-04-22T22:09:11.634Z,21.83
2023-04-22T22:11:38.183Z,21.77
2023-04-22T22:14:05.092Z,21.85
2023-04-22T22:16:31.773Z,21.86
2023-04-22T22:18:58.523Z,21.86
2023-04-22T22:21:26.155Z,21.86
2023-04-22T22:23:52.909Z,21.87
2023-04-22T22:26:19.586Z,21.87
2023-04-22T22:28:46.392Z,21.79
2023-04-22T22:31:13.057Z,21.87
2023-04-22T22:33:39.782Z,21.59
2023-04-22T22:36:06.735Z,21.86
2023-04-22T22:38:33.555Z,21.88
2023-04-22T22:41:00.132Z,21.79
2023-04-22T22:43:26.967Z,21.88
2023-04-22T22:45:53.608Z,21.77
2023-04-22T22:48:20.480Z,21.89
2023-04-22T22:50:47.183Z,21.88
2023-04-22T22:53:13.846Z,21.89
2023-04-22T22:55:40.495Z,21.86
2023-04-22T22:58:07.061Z,21.89
2023-04-22T23:00:33.821Z,21.85
2023-04-22T23:03:00.723Z,21.89
2023-04-22T23:05:27.621Z,21.90
2023-04-22T23:07:54.230Z,21.90
2023-04-22T23:10:21.113Z,21.89
2023-04-22T23:12:47.836Z,21.87
2023-04-22T23:15:14.354Z,21.91
2023-04-22T23:17:41.033Z,21.90
2023-04-22T23:20:10.644Z,21.87
2023-04-22T23:22:41.553Z,21.81
2023-04-22T23:25:09.123Z,21.91
2023-04-22T23:27:36.107Z,21.91
2023-04-22T23:30:04.558Z,21.91
2023-04-22T23:32:32.337Z,21.88
2023-04-22T23:35:00.705Z,21.85
2023-04-22T23:37:28.848Z,21.91
2023-04-22T23:39:55.594Z,21.90
2023-04-22T23:42:22.214Z,21.91
2023-04-22T23:44:48.804Z,21.91
2023-04-22T23:47:15.433Z,21.87
2023-04-22T23:49:42.214Z,21.91
2023-04-22T23:52:09.115Z,21.91
2023-04-22T23:54:36.058Z,21.88
2023-04-22T23:57:02.910Z,21.82
2023-04-22T23:59:29.881Z,21.91
